sensor_id;sensor_type;location;lat;lon;timestamp;pressure;altitude;pressure_sealevel;temperature;humidity
74529;BME280;63009;52.584;5.932;2023-07-28T00:01:11;100339.88;;;17.77;100.00
74529;BME280;63009;52.584;5.932;2023-07-28T00:03:36;100347.22;;;17.75;100.00
74529;BME280;63009;52.584;5.932;2023-07-28T00:06:02;100346.50;;;17.73;100.00
74529;BME280;63009;52.584;5.932;2023-07-28T00:08:27;100339.03;;;17.76;100.00
74529;BME280;63009;52.584;5.932;2023-07-28T00:10:52;100342.88;;;17.74;100.00
74529;BME280;63009;52.584;5.932;2023-07-28T00:13:18;100347.22;;;17.75;100.00
74529;BME280;63009;52.584;5.932;2023-07-28T00:15:43;100352.16;;;17.70;100.00
74529;BME280;63009;52.584;5.932;2023-07-28T00:18:08;100337.09;;;17.69;100.00
74529;BME280;63009;52.584;5.932;2023-07-28T00:20:33;100338.78;;;17.70;100.00
74529;BME280;63009;52.584;5.932;2023-07-28T00:22:59;100342.00;;;17.73;100.00
74529;BME280;63009;52.584;5.932;2023-07-28T00:25:24;100339.47;;;17.72;100.00
74529;BME280;63009;52.584;5.932;2023-07-28T00:27:50;100334.84;;;17.74;100.00
74529;BME280;63009;52.584;5.932;2023-07-28T00:30:15;100331.44;;;17.72;100.00
74529;BME280;63009;52.584;5.932;2023-07-28T00:32:40;100330.19;;;17.76;100.00
74529;BME280;63009;52.584;5.932;2023-07-28T00:35:06;100317.66;;;17.67;100.00
74529;BME280;63009;52.584;5.932;2023-07-28T00:37:31;100331.88;;;17.77;100.00
74529;BME280;63009;52.584;5.932;2023-07-28T00:39:56;100332.84;;;17.76;100.00
74529;BME280;63009;52.584;5.932;2023-07-28T00:42:22;100336.63;;;17.73;100.00
74529;BME280;63009;52.584;5.932;2023-07-28T00:44:47;100315.97;;;17.66;100.00
74529;BME280;63009;52.584;5.932;2023-07-28T00:47:13;100324.28;;;17.72;100.00
74529;BME280;63009;52.584;5.932;2023-07-28T00:49:39;100333.97;;;17.73;100.00
74529;BME280;63009;52.584;5.932;2023-07-28T00:52:07;100331.28;;;17.73;100.00
74529;BME280;63009;52.584;5.932;2023-07-28T00:54:32;100332.16;;;17.74;100.00
74529;BME280;63009;52.584;5.932;2023-07-28T00:56:58;100340.88;;;17.76;100.00
74529;BME280;63009;52.584;5.932;2023-07-28T00:59:23;100324.41;;;17.71;100.00
74529;BME280;63009;52.584;5.932;2023-07-28T01:01:48;100342.72;;;17.75;100.00
74529;BME280;63009;52.584;5.932;2023-07-28T01:04:14;100333.00;;;17.74;100.00
74529;BME280;63009;52.584;5.932;2023-07-28T01:07:04;100344.38;;;17.76;100.00
74529;BME280;63009;52.584;5.932;2023-07-28T01:09:40;100344.53;;;17.75;100.00
74529;BME280;63009;52.584;5.932;2023-07-28T01:12:08;100342.56;;;17.77;100.00
74529;BME280;63009;52.584;5.932;2023-07-28T01:14:36;100352.09;;;17.79;100.00
74529;BME280;63009;52.584;5.932;2023-07-28T01:17:02;100347.22;;;17.75;100.00
74529;BME280;63009;52.584;5.932;2023-07-28T01:19:28;100337.50;;;17.74;100.00
74529;BME280;63009;52.584;5.932;2023-07-28T01:24:51;100344.09;;;17.79;100.00
74529;BME280;63009;52.584;5.932;2023-07-28T01:27:20;100340.19;;;17.74;100.00
74529;BME280;63009;52.584;5.932;2023-07-28T01:29:46;100347.91;;;17.77;100.00
74529;BME280;63009;52.584;5.932;2023-07-28T01:32:13;100341.72;;;17.76;100.00
74529;BME280;63009;52.584;5.932;2023-07-28T01:34:39;100335.13;;;17.71;100.00
74529;BME280;63009;52.584;5.932;2023-07-28T01:37:04;100350.13;;;17.82;100.00
74529;BME280;63009;52.584;5.932;2023-07-28T01:39:29;100355.94;;;17.77;100.00
74529;BME280;63009;52.584;5.932;2023-07-28T01:41:55;100355.78;;;17.78;100.00
74529;BME280;63009;52.584;5.932;2023-07-28T01:44:20;100360.28;;;17.78;100.00
74529;BME280;63009;52.584;5.932;2023-07-28T01:46:45;100352.78;;;17.82;100.00
74529;BME280;63009;52.584;5.932;2023-07-28T01:49:11;100353.47;;;17.84;100.00
74529;BME280;63009;52.584;5.932;2023-07-28T01:51:36;100362.66;;;17.81;100.00
74529;BME280;63009;52.584;5.932;2023-07-28T01:54:01;100355.63;;;17.80;100.00
74529;BME280;63009;52.584;5.932;2023-07-28T01:56:27;100344.66;;;17.73;100.00
74529;BME280;63009;52.584;5.932;2023-07-28T01:58:52;100348.59;;;17.79;100.00
74529;BME280;63009;52.584;5.932;2023-07-28T02:01:17;100346.06;;;17.77;100.00
74529;BME280;63009;52.584;5.932;2023-07-28T02:03:42;100333.84;;;17.75;100.00
74529;BME280;63009;52.584;5.932;2023-07-28T02:06:08;100348.59;;;17.79;100.00
74529;BME280;63009;52.584;5.932;2023-07-28T02:08:33;100351.28;;;17.79;100.00
74529;BME280;63009;52.584;5.932;2023-07-28T02:10:58;100339.88;;;17.77;100.00
74529;BME280;63009;52.584;5.932;2023-07-28T02:13:23;100347.75;;;17.78;100.00
74529;BME280;63009;52.584;5.932;2023-07-28T02:15:49;100341.16;;;17.73;100.00
74529;BME280;63009;52.584;5.932;2023-07-28T02:18:14;100351.41;;;17.77;100.00
74529;BME280;63009;52.584;5.932;2023-07-28T02:20:39;100348.59;;;17.79;100.00
74529;BME280;63009;52.584;5.932;2023-07-28T02:23:04;100348.91;;;17.76;100.00
74529;BME280;63009;52.584;5.932;2023-07-28T02:25:30;100348.06;;;17.75;100.00
74529;BME280;63009;52.584;5.932;2023-07-28T02:27:55;100353.66;;;17.72;100.00
74529;BME280;63009;52.584;5.932;2023-07-28T02:30:20;100343.41;;;17.68;100.00
74529;BME280;63009;52.584;5.932;2023-07-28T02:32:46;100352.28;;;17.68;100.00
74529;BME280;63009;52.584;5.932;2023-07-28T02:35:11;100342.88;;;17.64;100.00
74529;BME280;63009;52.584;5.932;2023-07-28T02:37:36;100346.22;;;17.66;100.00
74529;BME280;63009;52.584;5.932;2023-07-28T02:40:02;100335.84;;;17.63;100.00
74529;BME280;63009;52.584;5.932;2023-07-28T02:42:27;100324.50;;;17.51;100.00
74529;BME280;63009;52.584;5.932;2023-07-28T02:44:52;100354.00;;;17.60;100.00
74529;BME280;63009;52.584;5.932;2023-07-28T02:47:18;100358.22;;;17.62;100.00
74529;BME280;63009;52.584;5.932;2023-07-28T02:49:43;100359.03;;;17.63;100.00
74529;BME280;63009;52.584;5.932;2023-07-28T02:52:08;100355.69;;;17.61;100.00
74529;BME280;63009;52.584;5.932;2023-07-28T02:54:34;100354.97;;;17.59;100.00
74529;BME280;63009;52.584;5.932;2023-07-28T02:56:59;100360.03;;;17.62;100.00
74529;BME280;63009;52.584;5.932;2023-07-28T02:59:24;100361.72;;;17.63;100.00
74529;BME280;63009;52.584;5.932;2023-07-28T03:01:50;100364.69;;;17.60;100.00
74529;BME280;63009;52.584;5.932;2023-07-28T03:04:18;100369.88;;;17.61;100.00
74529;BME280;63009;52.584;5.932;2023-07-28T03:06:47;100380.72;;;17.60;100.00
74529;BME280;63009;52.584;5.932;2023-07-28T03:09:12;100383.41;;;17.60;100.00
74529;BME280;63009;52.584;5.932;2023-07-28T03:11:38;100377.06;;;17.61;100.00
74529;BME280;63009;52.584;5.932;2023-07-28T03:14:03;100355.84;;;17.49;100.00
74529;BME280;63009;52.584;5.932;2023-07-28T03:16:28;100380.28;;;17.64;100.00
74529;BME280;63009;52.584;5.932;2023-07-28T03:18:54;100377.59;;;17.64;100.00
74529;BME280;63009;52.584;5.932;2023-07-28T03:21:19;100377.47;;;17.66;100.00
74529;BME280;63009;52.584;5.932;2023-07-28T03:23:44;100374.38;;;17.70;100.00
74529;BME280;63009;52.584;5.932;2023-07-28T03:26:09;100382.38;;;17.70;100.00
74529;BME280;63009;52.584;5.932;2023-07-28T03:28:35;100375.91;;;17.73;100.00
74529;BME280;63009;52.584;5.932;2023-07-28T03:31:00;100377.88;;;17.71;100.00
74529;BME280;63009;52.584;5.932;2023-07-28T03:33:26;100390.81;;;17.75;100.00
74529;BME280;63009;52.584;5.932;2023-07-28T03:35:51;100364.25;;;17.64;100.00
74529;BME280;63009;52.584;5.932;2023-07-28T03:38:16;100372.25;;;17.74;100.00
74529;BME280;63009;52.584;5.932;2023-07-28T03:40:42;100381.25;;;17.73;100.00
74529;BME280;63009;52.584;5.932;2023-07-28T03:43:09;100387.16;;;17.76;100.00
74529;BME280;63009;52.584;5.932;2023-07-28T03:45:34;100387.16;;;17.76;100.00
74529;BME280;63009;52.584;5.932;2023-07-28T03:47:59;100387.00;;;17.78;100.00
74529;BME280;63009;52.584;5.932;2023-07-28T03:50:24;100401.31;;;17.87;100.00
74529;BME280;63009;52.584;5.932;2023-07-28T03:52:51;100397.41;;;17.81;100.00
74529;BME280;63009;52.584;5.932;2023-07-28T03:55:16;100406.97;;;17.84;100.00
74529;BME280;63009;52.584;5.932;2023-07-28T03:57:42;100401.91;;;17.80;100.00
74529;BME280;63009;52.584;5.932;2023-07-28T04:00:08;100404.72;;;17.79;100.00
74529;BME280;63009;52.584;5.932;2023-07-28T04:02:33;100408.63;;;17.85;100.00
74529;BME280;63009;52.584;5.932;2023-07-28T04:04:58;100404.44;;;17.82;100.00
74529;BME280;63009;52.584;5.932;2023-07-28T04:07:24;100413.28;;;17.83;100.00
74529;BME280;63009;52.584;5.932;2023-07-28T04:09:49;100414.59;;;17.78;100.00
74529;BME280;63009;52.584;5.932;2023-07-28T04:12:14;100416.41;;;17.78;100.00
74529;BME280;63009;52.584;5.932;2023-07-28T04:14:39;100415.72;;;17.76;100.00
74529;BME280;63009;52.584;5.932;2023-07-28T04:17:06;100414.72;;;17.77;100.00
74529;BME280;63009;52.584;5.932;2023-07-28T04:19:32;100412.06;;;17.77;100.00
74529;BME280;63009;52.584;5.932;2023-07-28T04:21:59;100414.59;;;17.78;100.00
74529;BME280;63009;52.584;5.932;2023-07-28T04:24:25;100422.91;;;17.75;100.00
74529;BME280;63009;52.584;5.932;2023-07-28T04:26:50;100423.44;;;17.79;100.00
74529;BME280;63009;52.584;5.932;2023-07-28T04:29:16;100421.22;;;17.74;100.00
74529;BME280;63009;52.584;5.932;2023-07-28T04:31:41;100420.38;;;17.74;100.00
74529;BME280;63009;52.584;5.932;2023-07-28T04:34:07;100430.91;;;17.75;100.00
74529;BME280;63009;52.584;5.932;2023-07-28T04:36:32;100429.50;;;17.71;100.00
74529;BME280;63009;52.584;5.932;2023-07-28T04:38:57;100440.03;;;17.73;100.00
74529;BME280;63009;52.584;5.932;2023-07-28T04:41:23;100436.69;;;17.71;100.00
74529;BME280;63009;52.584;5.932;2023-07-28T04:43:48;100444.56;;;17.72;100.00
74529;BME280;63009;52.584;5.932;2023-07-28T04:46:13;100439.78;;;17.76;100.00
74529;BME280;63009;52.584;5.932;2023-07-28T04:48:38;100447.22;;;17.72;100.00
74529;BME280;63009;52.584;5.932;2023-07-28T04:51:04;100437.53;;;17.71;100.00
74529;BME280;63009;52.584;5.932;2023-07-28T04:53:29;100441.75;;;17.74;100.00
74529;BME280;63009;52.584;5.932;2023-07-28T04:55:54;100448.19;;;17.81;100.00
74529;BME280;63009;52.584;5.932;2023-07-28T04:58:19;100444.84;;;17.79;100.00
74529;BME280;63009;52.584;5.932;2023-07-28T05:00:46;100449.59;;;17.85;100.00
74529;BME280;63009;52.584;5.932;2023-07-28T05:03:11;100453.81;;;17.88;100.00
74529;BME280;63009;52.584;5.932;2023-07-28T05:05:36;100436.06;;;17.87;100.00
74529;BME280;63009;52.584;5.932;2023-07-28T05:08:02;100444.50;;;17.92;100.00
74529;BME280;63009;52.584;5.932;2023-07-28T05:10:27;100440.44;;;17.88;100.00
74529;BME280;63009;52.584;5.932;2023-07-28T05:12:52;100446.19;;;17.93;100.00
74529;BME280;63009;52.584;5.932;2023-07-28T05:15:18;100441.97;;;17.90;100.00
74529;BME280;63009;52.584;5.932;2023-07-28T05:17:43;100444.34;;;17.93;100.00
74529;BME280;63009;52.584;5.932;2023-07-28T05:20:09;100446.19;;;17.93;100.00
74529;BME280;63009;52.584;5.932;2023-07-28T05:22:34;100444.91;;;17.97;100.00
74529;BME280;63009;52.584;5.932;2023-07-28T05:24:59;100445.75;;;17.97;100.00
74529;BME280;63009;52.584;5.932;2023-07-28T05:27:24;100442.66;;;18.02;100.00
74529;BME280;63009;52.584;5.932;2023-07-28T05:29:50;100440.22;;;18.08;100.00
74529;BME280;63009;52.584;5.932;2023-07-28T05:32:15;100449.81;;;18.29;100.00
74529;BME280;63009;52.584;5.932;2023-07-28T05:34:43;100447.84;;;18.31;100.00
74529;BME280;63009;52.584;5.932;2023-07-28T05:37:10;100448.78;;;18.39;100.00
74529;BME280;63009;52.584;5.932;2023-07-28T05:39:35;100450.38;;;18.60;100.00
74529;BME280;63009;52.584;5.932;2023-07-28T05:42:01;100447.63;;;18.69;100.00
74529;BME280;63009;52.584;5.932;2023-07-28T05:44:26;100462.59;;;18.90;100.00
74529;BME280;63009;52.584;5.932;2023-07-28T05:46:51;100454.53;;;19.08;100.00
74529;BME280;63009;52.584;5.932;2023-07-28T05:49:16;100462.78;;;19.32;100.00
74529;BME280;63009;52.584;5.932;2023-07-28T05:51:42;100458.03;;;19.44;100.00
74529;BME280;63009;52.584;5.932;2023-07-28T05:54:07;100464.28;;;19.52;100.00
74529;BME280;63009;52.584;5.932;2023-07-28T05:56:32;100452.66;;;19.62;100.00
74529;BME280;63009;52.584;5.932;2023-07-28T05:58:58;100455.91;;;19.73;100.00
74529;BME280;63009;52.584;5.932;2023-07-28T06:01:23;100463.31;;;19.79;100.00
74529;BME280;63009;52.584;5.932;2023-07-28T06:03:50;100458.78;;;19.80;100.00
74529;BME280;63009;52.584;5.932;2023-07-28T06:06:17;100466.06;;;19.88;100.00
74529;BME280;63009;52.584;5.932;2023-07-28T06:08:42;100474.78;;;20.24;100.00
74529;BME280;63009;52.584;5.932;2023-07-28T06:11:07;100467.56;;;20.16;100.00
74529;BME280;63009;52.584;5.932;2023-07-28T06:13:33;100470.25;;;20.24;100.00
74529;BME280;63009;52.584;5.932;2023-07-28T06:15:58;100468.59;;;20.23;100.00
74529;BME280;63009;52.584;5.932;2023-07-28T06:18:24;100470.16;;;20.34;100.00
74529;BME280;63009;52.584;5.932;2023-07-28T06:20:49;100459.06;;;20.37;100.00
74529;BME280;63009;52.584;5.932;2023-07-28T06:23:15;100481.81;;;20.42;100.00
74529;BME280;63009;52.584;5.932;2023-07-28T06:25:40;100484.66;;;20.49;100.00
74529;BME280;63009;52.584;5.932;2023-07-28T06:28:10;100486.44;;;20.83;100.00
74529;BME280;63009;52.584;5.932;2023-07-28T06:30:36;100486.97;;;20.94;100.00
74529;BME280;63009;52.584;5.932;2023-07-28T06:33:01;100486.78;;;20.88;100.00
74529;BME280;63009;52.584;5.932;2023-07-28T06:35:28;100482.44;;;20.95;100.00
74529;BME280;63009;52.584;5.932;2023-07-28T06:37:53;100502.09;;;21.03;100.00
74529;BME280;63009;52.584;5.932;2023-07-28T06:40:18;100498.56;;;21.03;100.00
74529;BME280;63009;52.584;5.932;2023-07-28T06:42:44;100498.44;;;21.13;100.00
74529;BME280;63009;52.584;5.932;2023-07-28T06:45:09;100504.88;;;21.44;100.00
74529;BME280;63009;52.584;5.932;2023-07-28T06:47:34;100518.31;;;21.28;100.00
74529;BME280;63009;52.584;5.932;2023-07-28T06:50:00;100501.44;;;21.10;100.00
74529;BME280;63009;52.584;5.932;2023-07-28T06:52:25;100508.81;;;20.99;100.00
74529;BME280;63009;52.584;5.932;2023-07-28T06:54:50;100531.69;;;21.12;100.00
74529;BME280;63009;52.584;5.932;2023-07-28T06:57:15;100534.69;;;21.00;100.00
74529;BME280;63009;52.584;5.932;2023-07-28T06:59:41;100522.94;;;21.18;100.00
74529;BME280;63009;52.584;5.932;2023-07-28T07:02:07;100530.56;;;21.47;100.00
74529;BME280;63009;52.584;5.932;2023-07-28T07:04:33;100528.41;;;21.42;100.00
74529;BME280;63009;52.584;5.932;2023-07-28T07:06:58;100530.22;;;21.50;100.00
74529;BME280;63009;52.584;5.932;2023-07-28T07:09:23;100542.69;;;21.59;100.00
74529;BME280;63009;52.584;5.932;2023-07-28T07:11:50;100553.25;;;21.60;100.00
74529;BME280;63009;52.584;5.932;2023-07-28T07:14:15;100557.97;;;21.50;100.00
74529;BME280;63009;52.584;5.932;2023-07-28T07:16:41;100548.22;;;21.49;100.00
74529;BME280;63009;52.584;5.932;2023-07-28T07:19:06;100545.72;;;21.40;100.00
74529;BME280;63009;52.584;5.932;2023-07-28T07:21:31;100540.13;;;21.33;100.00
74529;BME280;63009;52.584;5.932;2023-07-28T07:23:56;100553.59;;;21.49;100.00
74529;BME280;63009;52.584;5.932;2023-07-28T07:26:22;100562.69;;;21.40;100.00
74529;BME280;63009;52.584;5.932;2023-07-28T07:28:47;100554.94;;;21.29;100.00
74529;BME280;63009;52.584;5.932;2023-07-28T07:31:16;100559.28;;;21.30;100.00
74529;BME280;63009;52.584;5.932;2023-07-28T07:33:41;100571.38;;;21.34;100.00
74529;BME280;63009;52.584;5.932;2023-07-28T07:36:17;100564.03;;;21.44;100.00
74529;BME280;63009;52.584;5.932;2023-07-28T07:38:42;100561.84;;;21.40;100.00
74529;BME280;63009;52.584;5.932;2023-07-28T07:41:10;100569.56;;;21.51;100.00
74529;BME280;63009;52.584;5.932;2023-07-28T07:43:36;100559.81;;;21.58;100.00
74529;BME280;63009;52.584;5.932;2023-07-28T07:46:01;100559.31;;;21.54;100.00
74529;BME280;63009;52.584;5.932;2023-07-28T07:48:26;100568.56;;;21.60;100.00
74529;BME280;63009;52.584;5.932;2023-07-28T07:50:52;100568.38;;;21.45;100.00
74529;BME280;63009;52.584;5.932;2023-07-28T07:53:17;100574.63;;;21.62;100.00
74529;BME280;63009;52.584;5.932;2023-07-28T07:55:42;100572.94;;;21.61;100.00
74529;BME280;63009;52.584;5.932;2023-07-28T07:58:08;100579.16;;;21.70;100.00
74529;BME280;63009;52.584;5.932;2023-07-28T08:00:33;100584.03;;;21.90;100.00
74529;BME280;63009;52.584;5.932;2023-07-28T08:02:59;100586.03;;;22.05;100.00
74529;BME280;63009;52.584;5.932;2023-07-28T08:05:24;100586.03;;;22.05;99.36
74529;BME280;63009;52.584;5.932;2023-07-28T08:07:49;100579.31;;;22.01;100.00
74529;BME280;63009;52.584;5.932;2023-07-28T08:10:16;100589.59;;;22.13;100.00
74529;BME280;63009;52.584;5.932;2023-07-28T08:12:42;100596.13;;;22.19;98.82
74529;BME280;63009;52.584;5.932;2023-07-28T08:15:10;100590.09;;;22.17;97.99
74529;BME280;63009;52.584;5.932;2023-07-28T08:17:35;100601.47;;;22.43;97.79
74529;BME280;63009;52.584;5.932;2023-07-28T08:20:00;100599.44;;;22.54;97.87
74529;BME280;63009;52.584;5.932;2023-07-28T08:22:26;100609.56;;;22.43;97.59
74529;BME280;63009;52.584;5.932;2023-07-28T08:24:51;100596.09;;;22.35;96.41
74529;BME280;63009;52.584;5.932;2023-07-28T08:27:16;100602.31;;;22.36;97.59
74529;BME280;63009;52.584;5.932;2023-07-28T08:29:42;100609.78;;;22.26;96.58
74529;BME280;63009;52.584;5.932;2023-07-28T08:32:07;100618.88;;;22.25;97.52
74529;BME280;63009;52.584;5.932;2023-07-28T08:34:33;100606.41;;;22.15;97.74
74529;BME280;63009;52.584;5.932;2023-07-28T08:36:58;100604.38;;;22.09;97.51
74529;BME280;63009;52.584;5.932;2023-07-28T08:39:25;100612.63;;;21.91;99.70
74529;BME280;63009;52.584;5.932;2023-07-28T08:42:03;100626.44;;;21.97;98.87
74529;BME280;63009;52.584;5.932;2023-07-28T08:44:31;100624.06;;;21.85;100.00
74529;BME280;63009;52.584;5.932;2023-07-28T08:46:57;100628.09;;;21.73;100.00
74529;BME280;63009;52.584;5.932;2023-07-28T08:49:22;100628.06;;;21.57;100.00
74529;BME280;63009;52.584;5.932;2023-07-28T08:51:51;100631.94;;;21.54;100.00
74529;BME280;63009;52.584;5.932;2023-07-28T08:54:17;100631.41;;;21.51;100.00
74529;BME280;63009;52.584;5.932;2023-07-28T08:56:43;100632.91;;;21.45;100.00
74529;BME280;63009;52.584;5.932;2023-07-28T08:59:09;100633.41;;;21.32;100.00
74529;BME280;63009;52.584;5.932;2023-07-28T09:01:41;100629.06;;;21.40;100.00
74529;BME280;63009;52.584;5.932;2023-07-28T09:04:10;100634.63;;;21.62;100.00
74529;BME280;63009;52.584;5.932;2023-07-28T09:06:36;100625.38;;;21.57;100.00
74529;BME280;63009;52.584;5.932;2023-07-28T09:09:06;100645.56;;;21.61;100.00
74529;BME280;63009;52.584;5.932;2023-07-28T09:11:32;100641.53;;;21.57;100.00
74529;BME280;63009;52.584;5.932;2023-07-28T09:13:59;100640.78;;;21.39;100.00
74529;BME280;63009;52.584;5.932;2023-07-28T09:16:25;100648.72;;;21.40;100.00
74529;BME280;63009;52.584;5.932;2023-07-28T09:18:51;100635.91;;;21.34;100.00
74529;BME280;63009;52.584;5.932;2023-07-28T09:21:18;100637.03;;;21.23;100.00
74529;BME280;63009;52.584;5.932;2023-07-28T09:23:46;100647.28;;;21.20;100.00
74529;BME280;63009;52.584;5.932;2023-07-28T09:26:11;100646.09;;;21.14;100.00
74529;BME280;63009;52.584;5.932;2023-07-28T09:28:38;100656.97;;;21.04;100.00
74529;BME280;63009;52.584;5.932;2023-07-28T09:31:07;100637.03;;;20.81;100.00
74529;BME280;63009;52.584;5.932;2023-07-28T09:33:34;100634.31;;;20.73;100.00
74529;BME280;63009;52.584;5.932;2023-07-28T09:36:10;100645.94;;;20.82;100.00
74529;BME280;63009;52.584;5.932;2023-07-28T09:38:37;100656.31;;;20.77;100.00
74529;BME280;63009;52.584;5.932;2023-07-28T09:41:04;100651.94;;;20.75;100.00
74529;BME280;63009;52.584;5.932;2023-07-28T09:43:35;100651.06;;;20.67;100.00
74529;BME280;63009;52.584;5.932;2023-07-28T09:46:03;100654.97;;;20.72;100.00
74529;BME280;63009;52.584;5.932;2023-07-28T09:48:30;100653.03;;;20.57;100.00
74529;BME280;63009;52.584;5.932;2023-07-28T09:50:58;100644.72;;;20.42;100.00
74529;BME280;63009;52.584;5.932;2023-07-28T09:53:25;100667.78;;;20.35;100.00
74529;BME280;63009;52.584;5.932;2023-07-28T09:55:52;100667.19;;;20.23;100.00
74529;BME280;63009;52.584;5.932;2023-07-28T09:58:20;100670.88;;;20.22;100.00
74529;BME280;63009;52.584;5.932;2023-07-28T10:00:49;100654.63;;;20.06;100.00
74529;BME280;63009;52.584;5.932;2023-07-28T10:03:16;100669.38;;;20.02;100.00
74529;BME280;63009;52.584;5.932;2023-07-28T10:05:41;100669.13;;;19.95;100.00
74529;BME280;63009;52.584;5.932;2023-07-28T10:08:08;100655.09;;;19.83;100.00
74529;BME280;63009;52.584;5.932;2023-07-28T10:10:34;100660.34;;;19.85;100.00
74529;BME280;63009;52.584;5.932;2023-07-28T10:12:59;100663.56;;;19.89;100.00
74529;BME280;63009;52.584;5.932;2023-07-28T10:15:30;100665.41;;;19.88;100.00
74529;BME280;63009;52.584;5.932;2023-07-28T10:17:58;100657.56;;;19.77;100.00
74529;BME280;63009;52.584;5.932;2023-07-28T10:20:35;100664.84;;;19.84;100.00
74529;BME280;63009;52.584;5.932;2023-07-28T10:23:27;100668.91;;;19.89;100.00
74529;BME280;63009;52.584;5.932;2023-07-28T10:25:57;100679.19;;;19.93;100.00
74529;BME280;63009;52.584;5.932;2023-07-28T10:28:30;100682.22;;;19.98;100.00
74529;BME280;63009;52.584;5.932;2023-07-28T10:30:57;100667.84;;;19.99;100.00
74529;BME280;63009;52.584;5.932;2023-07-28T10:33:34;100675.09;;;20.07;100.00
74529;BME280;63009;52.584;5.932;2023-07-28T10:38:36;100676.56;;;20.19;100.00
74529;BME280;63009;52.584;5.932;2023-07-28T10:43:57;100670.72;;;20.41;100.00
74529;BME280;63009;52.584;5.932;2023-07-28T10:46:22;100661.03;;;20.49;100.00
74529;BME280;63009;52.584;5.932;2023-07-28T10:48:49;100666.66;;;20.63;100.00
74529;BME280;63009;52.584;5.932;2023-07-28T10:51:22;100665.34;;;21.10;100.00
74529;BME280;63009;52.584;5.932;2023-07-28T10:53:56;100670.75;;;21.52;100.00
74529;BME280;63009;52.584;5.932;2023-07-28T10:56:23;100656.66;;;21.66;100.00
74529;BME280;63009;52.584;5.932;2023-07-28T10:59:04;100664.78;;;22.07;100.00
74529;BME280;63009;52.584;5.932;2023-07-28T11:04:06;100667.03;;;22.91;100.00
74529;BME280;63009;52.584;5.932;2023-07-28T11:06:32;100673.25;;;22.92;100.00
74529;BME280;63009;52.584;5.932;2023-07-28T11:08:57;100678.50;;;22.85;100.00
74529;BME280;63009;52.584;5.932;2023-07-28T11:11:23;100666.91;;;22.68;98.51
74529;BME280;63009;52.584;5.932;2023-07-28T11:13:48;100667.28;;;22.49;97.87
74529;BME280;63009;52.584;5.932;2023-07-28T11:16:14;100654.66;;;22.49;99.56
74529;BME280;63009;52.584;5.932;2023-07-28T11:18:39;100666.59;;;22.47;98.44
74529;BME280;63009;52.584;5.932;2023-07-28T11:21:04;100648.41;;;22.49;96.53
74529;BME280;63009;52.584;5.932;2023-07-28T11:23:29;100677.31;;;22.79;100.00
74529;BME280;63009;52.584;5.932;2023-07-28T11:25:55;100679.72;;;22.83;96.22
74529;BME280;63009;52.584;5.932;2023-07-28T11:28:21;100678.31;;;22.78;93.38
74529;BME280;63009;52.584;5.932;2023-07-28T11:30:46;100672.44;;;22.75;93.89
74529;BME280;63009;52.584;5.932;2023-07-28T11:33:13;100673.09;;;22.93;95.82
74529;BME280;63009;52.584;5.932;2023-07-28T11:35:39;100674.75;;;23.02;95.58
74529;BME280;63009;52.584;5.932;2023-07-28T11:38:07;100675.22;;;23.14;97.59
74529;BME280;63009;52.584;5.932;2023-07-28T11:40:33;100676.88;;;23.15;93.48
74529;BME280;63009;52.584;5.932;2023-07-28T11:42:59;100689.72;;;23.05;93.65
74529;BME280;63009;52.584;5.932;2023-07-28T11:45:24;100690.78;;;22.96;94.14
74529;BME280;63009;52.584;5.932;2023-07-28T11:50:27;100691.13;;;22.76;96.71
74529;BME280;63009;52.584;5.932;2023-07-28T11:52:53;100678.66;;;22.92;97.79
74529;BME280;63009;52.584;5.932;2023-07-28T11:55:19;100673.72;;;23.12;96.29
74529;BME280;63009;52.584;5.932;2023-07-28T11:57:46;100672.72;;;23.35;95.14
74529;BME280;63009;52.584;5.932;2023-07-28T12:00:12;100681.78;;;23.51;94.09
74529;BME280;63009;52.584;5.932;2023-07-28T12:02:41;100672.66;;;23.52;95.31
74529;BME280;63009;52.584;5.932;2023-07-28T12:05:14;100687.84;;;23.53;91.33
74529;BME280;63009;52.584;5.932;2023-07-28T12:07:40;100673.97;;;23.56;91.21
74529;BME280;63009;52.584;5.932;2023-07-28T12:10:07;100670.72;;;23.68;92.47
74529;BME280;63009;52.584;5.932;2023-07-28T12:12:45;100685.97;;;23.84;93.24
74529;BME280;63009;52.584;5.932;2023-07-28T12:15:22;100682.59;;;24.05;90.78
74529;BME280;63009;52.584;5.932;2023-07-28T12:18:03;100690.59;;;23.98;89.15
74529;BME280;63009;52.584;5.932;2023-07-28T12:20:43;100677.28;;;23.97;88.67
74529;BME280;63009;52.584;5.932;2023-07-28T12:23:12;100669.47;;;24.02;91.50
74529;BME280;63009;52.584;5.932;2023-07-28T12:25:38;100704.97;;;24.14;88.05
74529;BME280;63009;52.584;5.932;2023-07-28T12:28:03;100682.66;;;23.97;89.19
74529;BME280;63009;52.584;5.932;2023-07-28T12:30:29;100684.09;;;23.85;88.35
74529;BME280;63009;52.584;5.932;2023-07-28T12:32:55;100704.06;;;23.76;88.42
74529;BME280;63009;52.584;5.932;2023-07-28T12:35:21;100694.88;;;23.62;89.53
74529;BME280;63009;52.584;5.932;2023-07-28T12:37:48;100705.63;;;23.70;91.47
74529;BME280;63009;52.584;5.932;2023-07-28T12:40:14;100702.00;;;23.47;90.44
74529;BME280;63009;52.584;5.932;2023-07-28T12:42:39;100685.53;;;23.42;90.22
74529;BME280;63009;52.584;5.932;2023-07-28T12:45:05;100706.78;;;23.36;89.94
74529;BME280;63009;52.584;5.932;2023-07-28T12:47:31;100705.44;;;23.40;89.22
74529;BME280;63009;52.584;5.932;2023-07-28T12:49:57;100713.75;;;23.62;88.67
74529;BME280;63009;52.584;5.932;2023-07-28T12:52:22;100703.56;;;23.80;91.50